createdAt,value
2022-12-24T00:01:05.844Z,20.17
2022-12-24T00:03:33.748Z,19.75
2022-12-24T00:06:16.576Z,24.35
2022-12-24T00:08:43.725Z,18.08
2022-12-24T00:11:10.968Z,17.55
2022-12-24T00:13:38.188Z,21.60
2022-12-24T00:16:06.026Z,26.08
2022-12-24T00:18:33.207Z,26.42
2022-12-24T00:21:02.015Z,22.08
2022-12-24T00:23:31.977Z,20.33
2022-12-24T00:25:59.058Z,20.05
2022-12-24T00:28:26.073Z,23.65
2022-12-24T00:30:53.246Z,22.30
2022-12-24T00:33:24.695Z,25.83
2022-12-24T00:35:54.739Z,19.67
2022-12-24T00:38:21.875Z,28.85
2022-12-24T00:40:48.986Z,20.38
2022-12-24T00:43:16.114Z,24.00
2022-12-24T00:45:43.189Z,19.90
2022-12-24T00:48:10.261Z,27.52
2022-12-24T00:50:37.324Z,17.30
2022-12-24T00:53:04.760Z,17.20
2022-12-24T00:55:32.308Z,15.73
2022-12-24T00:57:59.413Z,20.92
2022-12-24T01:00:26.507Z,29.58
2022-12-24T01:02:53.688Z,18.48
2022-12-24T01:05:21.177Z,15.40
2022-12-24T01:07:48.416Z,32.13
2022-12-24T01:10:18.936Z,24.40
2022-12-24T01:12:46.995Z,15.75
2022-12-24T01:15:14.898Z,21.17
2022-12-24T01:17:42.047Z,17.23
2022-12-24T01:20:13.326Z,17.00
2022-12-24T01:22:40.453Z,25.27
2022-12-24T01:25:07.948Z,15.85
2022-12-24T01:27:35.074Z,17.95
2022-12-24T01:30:02.233Z,27.30
2022-12-24T01:32:29.325Z,26.45
2022-12-24T01:34:56.416Z,22.88
2022-12-24T01:37:23.923Z,20.73
2022-12-24T01:39:50.965Z,16.67
2022-12-24T01:42:41.332Z,16.48
2022-12-24T01:45:47.014Z,17.35
2022-12-24T01:48:37.881Z,14.68
2022-12-24T01:51:28.129Z,23.30
2022-12-24T01:54:11.389Z,16.58
2022-12-24T01:56:45.154Z,20.55
2022-12-24T01:59:16.477Z,16.73
2022-12-24T02:01:43.883Z,36.05
2022-12-24T02:04:33.773Z,14.45
2022-12-24T02:07:01.247Z,17.75
2022-12-24T02:09:29.261Z,17.50
2022-12-24T02:11:57.097Z,18.13
2022-12-24T02:14:26.596Z,16.10
2022-12-24T02:16:53.617Z,19.48
2022-12-24T02:19:51.550Z,14.05
2022-12-24T02:22:49.447Z,12.90
2022-12-24T02:25:22.515Z,12.07
2022-12-24T02:28:15.360Z,14.15
2022-12-24T02:30:47.853Z,15.15
2022-12-24T02:33:20.696Z,12.05
2022-12-24T02:35:55.247Z,14.25
2022-12-24T02:41:00.511Z,14.27
2022-12-24T02:43:35.743Z,14.13
2022-12-24T02:46:11.959Z,12.57
2022-12-24T02:48:42.812Z,11.30
2022-12-24T02:51:11.499Z,25.35
2022-12-24T02:53:38.994Z,14.50
2022-12-24T02:56:26.399Z,13.95
2022-12-24T02:59:22.601Z,15.65
2022-12-24T03:02:10.026Z,23.40
2022-12-24T03:05:15.525Z,13.57
2022-12-24T03:10:32.553Z,14.00
2022-12-24T03:13:29.411Z,13.30
2022-12-24T03:15:56.629Z,14.15
2022-12-24T03:18:26.261Z,10.50
2022-12-24T03:20:59.241Z,15.88
2022-12-24T03:23:26.381Z,10.50
2022-12-24T03:25:53.852Z,12.75
2022-12-24T03:28:26.319Z,10.82
2022-12-24T03:30:53.570Z,14.10
2022-12-24T03:33:20.837Z,12.68
2022-12-24T03:35:48.015Z,12.05
2022-12-24T03:38:15.121Z,13.10
2022-12-24T03:40:42.225Z,12.48
2022-12-24T03:43:09.323Z,15.82
2022-12-24T03:45:36.474Z,9.07
2022-12-24T03:48:03.764Z,16.95
2022-12-24T03:50:30.947Z,14.18
2022-12-24T03:52:57.984Z,13.77
2022-12-24T03:55:25.110Z,9.07
2022-12-24T03:57:52.218Z,7.03
2022-12-24T04:00:19.823Z,10.70
2022-12-24T04:02:47.061Z,4.35
2022-12-24T04:05:17.503Z,6.53
2022-12-24T04:07:45.282Z,4.47
2022-12-24T04:10:12.603Z,10.18
2022-12-24T04:12:40.011Z,7.53
2022-12-24T04:15:10.205Z,9.15
2022-12-24T04:17:37.371Z,7.60
2022-12-24T04:20:04.765Z,7.85
2022-12-24T04:22:32.673Z,6.35
2022-12-24T04:24:59.724Z,11.63
2022-12-24T04:27:30.430Z,8.32
2022-12-24T04:29:58.070Z,8.07
2022-12-24T04:32:27.029Z,9.02
2022-12-24T04:34:54.233Z,8.88
2022-12-24T04:37:21.386Z,10.05
2022-12-24T04:39:48.457Z,9.23
2022-12-24T04:42:15.632Z,9.98
2022-12-24T04:44:42.685Z,9.95
2022-12-24T04:47:10.880Z,7.00
2022-12-24T04:49:38.073Z,7.40
2022-12-24T04:52:05.843Z,10.15
2022-12-24T04:54:32.984Z,10.65
2022-12-24T04:57:00.181Z,11.27
2022-12-24T04:59:27.399Z,6.82
2022-12-24T05:01:54.623Z,8.27
2022-12-24T05:04:21.830Z,10.35
2022-12-24T05:06:48.892Z,9.77
2022-12-24T05:09:15.937Z,8.38
2022-12-24T05:11:43.041Z,7.50
2022-12-24T05:14:10.149Z,5.28
2022-12-24T05:16:38.813Z,9.93
2022-12-24T05:19:06.028Z,9.32
2022-12-24T05:21:33.105Z,9.65
2022-12-24T05:24:18.530Z,8.00
2022-12-24T05:26:57.318Z,13.02
2022-12-24T05:29:24.843Z,9.63
2022-12-24T05:31:51.892Z,7.68
2022-12-24T05:34:19.202Z,9.30
2022-12-24T05:36:46.424Z,11.57
2022-12-24T05:39:18.138Z,8.25
2022-12-24T05:41:45.945Z,7.97
2022-12-24T05:44:13.909Z,12.38
2022-12-24T05:46:41.058Z,9.00
2022-12-24T05:49:08.734Z,8.23
2022-12-24T05:51:35.837Z,9.38
2022-12-24T05:54:03.081Z,12.77
2022-12-24T05:56:30.149Z,12.00
2022-12-24T05:58:58.151Z,12.38
2022-12-24T06:01:26.159Z,8.23
2022-12-24T06:03:53.733Z,6.00
2022-12-24T06:06:23.797Z,7.80
2022-12-24T06:08:52.443Z,8.55
2022-12-24T06:11:22.263Z,10.70
2022-12-24T06:13:50.233Z,7.05
2022-12-24T06:16:19.600Z,9.00
2022-12-24T06:18:47.243Z,11.68
2022-12-24T06:21:15.495Z,8.80
2022-12-24T06:23:44.567Z,6.82
2022-12-24T06:26:17.280Z,7.65
2022-12-24T06:28:45.241Z,6.07
2022-12-24T06:31:14.571Z,7.53
2022-12-24T06:33:41.719Z,6.47
2022-12-24T06:36:26.118Z,7.40
2022-12-24T06:38:54.855Z,9.00
2022-12-24T06:41:22.175Z,8.00
2022-12-24T06:43:51.432Z,6.60
2022-12-24T06:46:19.151Z,7.68
2022-12-24T06:48:47.173Z,9.43
2022-12-24T06:51:16.623Z,10.40
2022-12-24T06:53:43.672Z,7.40
2022-12-24T06:56:14.033Z,7.78
2022-12-24T06:58:41.992Z,9.70
2022-12-24T07:01:12.136Z,7.43
2022-12-24T07:03:39.856Z,5.15
2022-12-24T07:06:08.076Z,7.82
2022-12-24T07:08:36.526Z,6.47
2022-12-24T07:11:04.844Z,5.15
2022-12-24T07:13:35.409Z,8.13
2022-12-24T07:16:05.433Z,12.32
2022-12-24T07:18:33.258Z,12.20
2022-12-24T07:21:01.664Z,9.30
2022-12-24T07:23:29.237Z,10.45
2022-12-24T07:25:56.303Z,10.45
2022-12-24T07:28:27.818Z,9.60
2022-12-24T07:30:56.336Z,14.50
2022-12-24T07:33:24.675Z,9.20
2022-12-24T07:36:02.685Z,10.43
2022-12-24T07:38:30.788Z,11.82
2022-12-24T07:40:58.968Z,4.55
2022-12-24T07:43:27.086Z,5.38
2022-12-24T07:45:58.265Z,3.58
2022-12-24T07:48:27.118Z,3.65
2022-12-24T07:50:54.717Z,4.57
2022-12-24T07:53:22.044Z,2.72
2022-12-24T07:55:49.773Z,3.55
2022-12-24T07:58:17.137Z,4.20
2022-12-24T08:00:44.439Z,3.72
2022-12-24T08:03:19.466Z,4.30
2022-12-24T08:05:47.499Z,5.72
2022-12-24T08:08:15.223Z,6.20
2022-12-24T08:10:44.592Z,5.15
2022-12-24T08:13:12.469Z,8.88
2022-12-24T08:15:39.618Z,7.82
2022-12-24T08:18:06.772Z,5.55
2022-12-24T08:20:33.970Z,5.97
2022-12-24T08:23:01.092Z,5.57
2022-12-24T08:25:28.211Z,5.45
2022-12-24T08:27:55.224Z,7.10
2022-12-24T08:30:22.270Z,5.75
2022-12-24T08:32:49.570Z,8.23
2022-12-24T08:35:17.113Z,8.27
2022-12-24T08:37:44.198Z,7.50
2022-12-24T08:40:12.618Z,12.68
2022-12-24T08:42:39.745Z,10.70
2022-12-24T08:45:07.528Z,9.52
2022-12-24T08:47:34.562Z,9.30
2022-12-24T08:50:01.631Z,9.75
2022-12-24T08:52:28.763Z,12.18
2022-12-24T08:54:55.842Z,16.25
2022-12-24T08:57:22.963Z,15.07
2022-12-24T08:59:50.013Z,12.38
2022-12-24T09:02:17.343Z,15.43
2022-12-24T09:04:44.501Z,17.52
2022-12-24T09:07:11.634Z,15.25
2022-12-24T09:09:38.792Z,21.90
2022-12-24T09:12:06.849Z,18.50
2022-12-24T09:14:34.470Z,20.58
2022-12-24T09:17:01.594Z,14.50
2022-12-24T09:19:28.992Z,16.00
2022-12-24T09:21:56.044Z,15.43
2022-12-24T09:24:23.163Z,17.85
2022-12-24T09:26:57.247Z,16.10
2022-12-24T09:29:24.867Z,25.15
2022-12-24T09:31:52.020Z,15.02
2022-12-24T09:34:19.137Z,17.08
2022-12-24T09:36:46.674Z,17.83
2022-12-24T09:39:14.510Z,18.25
2022-12-24T09:42:02.861Z,15.70
2022-12-24T09:45:02.668Z,15.52
2022-12-24T09:47:45.233Z,20.15
2022-12-24T09:50:40.402Z,14.57
2022-12-24T09:53:21.785Z,13.68
2022-12-24T09:55:59.392Z,22.00
2022-12-24T09:58:35.536Z,18.52
2022-12-24T10:01:02.847Z,18.10
2022-12-24T10:03:30.943Z,17.60
2022-12-24T10:06:16.089Z,22.23
2022-12-24T10:08:46.022Z,20.17
2022-12-24T10:11:40.311Z,20.73
2022-12-24T10:14:18.144Z,19.70
2022-12-24T10:17:19.173Z,14.98
2022-12-24T10:20:10.985Z,20.38
2022-12-24T10:22:46.750Z,13.23
2022-12-24T10:25:21.928Z,14.00
2022-12-24T10:27:49.378Z,14.88
2022-12-24T10:30:19.859Z,15.63
2022-12-24T10:32:52.227Z,20.83
2022-12-24T10:35:42.655Z,16.05
2022-12-24T10:38:09.888Z,16.50
2022-12-24T10:40:47.571Z,21.60
2022-12-24T10:43:23.566Z,22.90
2022-12-24T10:46:03.442Z,18.33
2022-12-24T10:49:14.633Z,23.52
2022-12-24T10:51:54.386Z,25.63
2022-12-24T10:54:27.480Z,26.17
2022-12-24T10:56:58.903Z,26.63
2022-12-24T10:59:49.541Z,20.45
2022-12-24T11:02:47.204Z,19.48
2022-12-24T11:05:29.895Z,17.13
2022-12-24T11:08:13.358Z,18.92
2022-12-24T11:10:53.971Z,20.17
2022-12-24T11:13:37.456Z,17.13
2022-12-24T11:16:17.799Z,15.20
2022-12-24T11:18:51.713Z,13.65
2022-12-24T11:23:56.228Z,13.35
2022-12-24T11:26:25.503Z,14.52
2022-12-24T11:29:17.246Z,19.60
2022-12-24T11:31:45.525Z,15.77
2022-12-24T11:34:22.645Z,17.90
2022-12-24T11:36:51.409Z,16.65
2022-12-24T11:39:24.805Z,18.23
2022-12-24T11:41:54.245Z,26.00
2022-12-24T11:44:27.240Z,18.48
2022-12-24T11:46:59.044Z,14.80
2022-12-24T11:49:31.791Z,19.35
2022-12-24T11:52:11.083Z,19.67
2022-12-24T11:55:05.635Z,18.52
2022-12-24T11:58:06.503Z,21.48
2022-12-24T12:00:33.708Z,19.45
2022-12-24T12:03:04.530Z,17.80
2022-12-24T12:05:36.199Z,15.57
2022-12-24T12:08:18.273Z,21.73
2022-12-24T12:10:46.895Z,24.73
2022-12-24T12:13:18.703Z,24.70
2022-12-24T12:15:54.681Z,24.95
2022-12-24T12:18:34.559Z,22.85
2022-12-24T12:21:07.721Z,21.75
2022-12-24T12:23:49.500Z,22.02
2022-12-24T12:26:25.756Z,21.75
2022-12-24T12:29:11.410Z,19.38
2022-12-24T12:31:57.635Z,23.30
2022-12-24T12:34:27.461Z,22.67
2022-12-24T12:37:14.834Z,16.80
2022-12-24T12:39:42.635Z,15.20
2022-12-24T12:42:18.772Z,15.27
2022-12-24T12:45:17.221Z,15.57
2022-12-24T12:48:01.305Z,18.55
2022-12-24T12:50:55.297Z,15.00
2022-12-24T12:53:29.158Z,21.88
2022-12-24T12:56:05.987Z,22.90
2022-12-24T12:58:55.241Z,14.98
2022-12-24T13:01:55.458Z,19.23
2022-12-24T13:04:53.212Z,20.63
2022-12-24T13:07:39.188Z,13.65
2022-12-24T13:10:13.865Z,21.40
2022-12-24T13:13:20.542Z,18.40
2022-12-24T13:16:15.738Z,15.75
2022-12-24T13:19:08.565Z,16.73
2022-12-24T13:21:35.880Z,16.63
2022-12-24T13:24:07.061Z,14.23
2022-12-24T13:26:34.410Z,21.98
2022-12-24T13:29:36.276Z,16.73
2022-12-24T13:32:21.671Z,17.38
2022-12-24T13:34:57.991Z,19.05
2022-12-24T13:37:30.977Z,17.67
2022-12-24T13:40:06.884Z,20.15
2022-12-24T13:42:59.224Z,16.92
2022-12-24T13:45:29.776Z,16.98
2022-12-24T13:48:06.134Z,17.65
2022-12-24T13:50:44.532Z,15.23
2022-12-24T13:53:30.377Z,13.68
2022-12-24T13:56:04.445Z,17.48
2022-12-24T13:58:31.994Z,16.35
2022-12-24T14:01:06.552Z,17.15
2022-12-24T14:03:44.168Z,13.57
2022-12-24T14:06:21.148Z,17.58
2022-12-24T14:08:51.780Z,18.75
2022-12-24T14:11:24.620Z,17.75
2022-12-24T14:14:12.694Z,16.38
2022-12-24T14:16:51.668Z,20.90
2022-12-24T14:19:25.442Z,21.52
2022-12-24T14:21:59.206Z,20.30
2022-12-24T14:24:33.182Z,15.65
2022-12-24T14:27:20.497Z,18.30
2022-12-24T14:29:52.869Z,22.17
2022-12-24T14:32:19.978Z,16.60
2022-12-24T14:34:47.056Z,18.63
2022-12-24T14:37:14.585Z,16.00
2022-12-24T14:39:46.484Z,17.77
2022-12-24T14:42:50.902Z,14.15
2022-12-24T14:45:23.954Z,17.13
2022-12-24T14:47:56.952Z,17.83
2022-12-24T14:50:42.616Z,17.27
2022-12-24T14:53:31.218Z,17.27
2022-12-24T14:55:58.410Z,12.90
2022-12-24T14:58:40.262Z,18.30
2022-12-24T15:01:27.516Z,15.35
2022-12-24T15:04:09.922Z,13.25
2022-12-24T15:06:44.664Z,22.02
2022-12-24T15:09:25.252Z,24.58
2022-12-24T15:11:55.238Z,19.20
2022-12-24T15:14:25.128Z,15.38
2022-12-24T15:16:59.714Z,17.10
2022-12-24T15:19:32.061Z,17.13
2022-12-24T15:21:59.660Z,23.67
2022-12-24T15:24:32.624Z,19.70
2022-12-24T15:27:03.061Z,20.13
2022-12-24T15:29:32.901Z,18.30
2022-12-24T15:32:01.794Z,26.35
2022-12-24T15:34:39.649Z,18.40
2022-12-24T15:37:21.291Z,22.83
2022-12-24T15:40:00.479Z,20.40
2022-12-24T15:42:28.502Z,22.80
2022-12-24T15:45:03.071Z,30.33
2022-12-24T15:47:44.426Z,23.67
2022-12-24T15:50:30.303Z,30.05
2022-12-24T15:53:20.753Z,28.80
2022-12-24T15:56:11.280Z,24.60
2022-12-24T15:58:45.680Z,30.33
2022-12-24T16:03:57.267Z,31.90
2022-12-24T16:06:24.658Z,35.38
2022-12-24T16:08:52.110Z,24.90
2022-12-24T16:11:20.510Z,28.23
2022-12-24T16:14:17.251Z,22.95
2022-12-24T16:16:48.684Z,21.42
2022-12-24T16:19:24.435Z,24.92
2022-12-24T16:21:54.982Z,19.17
2022-12-24T16:24:25.905Z,28.90
2022-12-24T16:26:53.217Z,21.13
2022-12-24T16:29:20.728Z,22.95
2022-12-24T16:31:55.217Z,23.88
2022-12-24T16:34:40.536Z,25.98
2022-12-24T16:37:08.086Z,24.60
2022-12-24T16:39:35.482Z,21.85
2022-12-24T16:42:23.064Z,23.25
2022-12-24T16:44:53.247Z,23.67
2022-12-24T16:47:23.980Z,22.33
2022-12-24T16:49:51.574Z,28.80
2022-12-24T16:52:25.863Z,32.88
2022-12-24T16:54:53.214Z,21.75
2022-12-24T16:57:22.890Z,21.30
2022-12-24T16:59:51.227Z,25.40
2022-12-24T17:02:21.723Z,23.05
2022-12-24T17:04:49.690Z,24.17
2022-12-24T17:07:19.255Z,26.73
2022-12-24T17:09:46.340Z,24.23
2022-12-24T17:12:14.296Z,27.60
2022-12-24T17:14:42.499Z,19.70
2022-12-24T17:17:22.872Z,22.55
2022-12-24T17:19:50.483Z,22.52
2022-12-24T17:22:20.190Z,25.27
2022-12-24T17:24:47.379Z,31.90
2022-12-24T17:27:14.871Z,19.63
2022-12-24T17:29:42.424Z,31.92
2022-12-24T17:32:09.659Z,27.88
2022-12-24T17:34:36.851Z,27.08
2022-12-24T17:37:03.936Z,24.45
2022-12-24T17:39:30.969Z,24.27
2022-12-24T17:41:58.122Z,28.02
2022-12-24T17:44:25.224Z,28.90
2022-12-24T17:46:52.419Z,25.75
2022-12-24T17:49:19.508Z,31.13
2022-12-24T17:51:46.975Z,28.33
2022-12-24T17:54:14.302Z,26.33
2022-12-24T17:56:41.380Z,30.17
2022-12-24T17:59:08.530Z,30.58
2022-12-24T18:01:35.808Z,30.33
2022-12-24T18:04:07.314Z,29.88
2022-12-24T18:06:34.643Z,36.60
2022-12-24T18:09:01.713Z,26.38
2022-12-24T18:11:32.801Z,21.85
2022-12-24T18:14:01.460Z,23.67
2022-12-24T18:16:30.011Z,27.67
2022-12-24T18:18:57.875Z,25.52
2022-12-24T18:21:29.092Z,27.95
2022-12-24T18:23:56.985Z,27.15
2022-12-24T18:26:26.343Z,25.80
2022-12-24T18:28:55.446Z,22.40
2022-12-24T18:31:23.869Z,22.17
2022-12-24T18:33:52.401Z,24.52
2022-12-24T18:36:20.311Z,31.02
2022-12-24T18:38:48.236Z,21.65
2022-12-24T18:41:19.035Z,30.13
2022-12-24T18:43:46.455Z,29.23
2022-12-24T18:46:16.009Z,29.27
2022-12-24T18:48:43.176Z,22.55
2022-12-24T18:51:10.993Z,25.77
2022-12-24T18:53:38.702Z,26.40
2022-12-24T18:56:15.932Z,26.85
2022-12-24T18:58:43.893Z,26.00
2022-12-24T19:01:37.269Z,28.63
2022-12-24T19:04:04.655Z,27.45
2022-12-24T19:06:31.785Z,30.75
2022-12-24T19:09:00.836Z,32.00
2022-12-24T19:11:31.557Z,31.20
2022-12-24T19:13:59.210Z,24.42
2022-12-24T19:16:29.660Z,31.13
2022-12-24T19:18:57.674Z,24.45
2022-12-24T19:21:25.288Z,32.38
2022-12-24T19:23:53.085Z,30.98
2022-12-24T19:26:20.704Z,36.95
2022-12-24T19:28:48.876Z,26.58
2022-12-24T19:31:19.257Z,24.95
2022-12-24T19:33:49.420Z,31.17
2022-12-24T19:36:23.095Z,34.05
2022-12-24T19:38:50.502Z,35.95
2022-12-24T19:41:23.757Z,35.63
2022-12-24T19:43:54.523Z,31.98
2022-12-24T19:46:24.718Z,32.83
2022-12-24T19:48:54.425Z,29.35
2022-12-24T19:51:22.037Z,28.35
2022-12-24T19:53:49.921Z,31.10
2022-12-24T19:56:18.751Z,26.45
2022-12-24T19:58:46.360Z,30.17
2022-12-24T20:01:20.265Z,33.53
2022-12-24T20:03:48.422Z,31.23
2022-12-24T20:06:17.670Z,27.95
2022-12-24T20:08:45.082Z,27.75
2022-12-24T20:11:15.657Z,25.23
2022-12-24T20:13:42.906Z,20.15
2022-12-24T20:16:19.436Z,23.75
2022-12-24T20:18:55.294Z,28.80
2022-12-24T20:21:23.582Z,29.05
2022-12-24T20:23:51.282Z,32.55
2022-12-24T20:26:21.301Z,31.17
2022-12-24T20:28:48.849Z,27.95
2022-12-24T20:31:28.296Z,35.83
2022-12-24T20:33:57.540Z,29.55
2022-12-24T20:36:26.002Z,36.17
2022-12-24T20:38:53.592Z,23.48
2022-12-24T20:41:23.208Z,23.38
2022-12-24T20:43:52.269Z,22.80
2022-12-24T20:46:22.688Z,24.02
2022-12-24T20:48:51.923Z,26.25
2022-12-24T20:51:25.529Z,35.88
2022-12-24T20:53:59.017Z,28.40
2022-12-24T20:56:26.287Z,29.05
2022-12-24T20:58:54.050Z,22.77
2022-12-24T21:01:27.027Z,34.20
2022-12-24T21:03:55.456Z,25.65
2022-12-24T21:06:24.265Z,23.65
2022-12-24T21:08:52.931Z,25.17
2022-12-24T21:11:47.201Z,25.45
2022-12-24T21:14:14.921Z,24.83
2022-12-24T21:16:42.786Z,21.80
2022-12-24T21:19:14.141Z,22.13
2022-12-24T21:21:42.655Z,20.30
2022-12-24T21:24:10.389Z,15.70
2022-12-24T21:26:38.519Z,17.48
2022-12-24T21:29:08.235Z,20.73
2022-12-24T21:31:37.137Z,18.08
2022-12-24T21:34:04.301Z,15.30
2022-12-24T21:36:31.959Z,15.57
2022-12-24T21:38:59.088Z,15.70
2022-12-24T21:41:27.343Z,14.05
2022-12-24T21:43:55.158Z,13.80
2022-12-24T21:46:25.511Z,22.02
2022-12-24T21:49:13.337Z,15.70
2022-12-24T21:51:41.801Z,17.33
2022-12-24T21:54:24.038Z,15.95
2022-12-24T21:57:10.820Z,13.60
2022-12-24T21:59:38.248Z,17.75
2022-12-24T22:02:05.588Z,14.73
2022-12-24T22:04:33.590Z,14.95
2022-12-24T22:07:19.030Z,19.60
2022-12-24T22:10:05.118Z,15.43
2022-12-24T22:12:33.827Z,23.17
2022-12-24T22:15:01.456Z,23.90
2022-12-24T22:17:29.364Z,20.33
2022-12-24T22:19:57.243Z,19.83
2022-12-24T22:22:25.269Z,21.38
2022-12-24T22:24:52.412Z,20.25
2022-12-24T22:27:19.634Z,21.48
2022-12-24T22:29:46.962Z,19.77
2022-12-24T22:32:14.232Z,18.70
2022-12-24T22:34:41.367Z,25.88
2022-12-24T22:37:08.558Z,26.90
2022-12-24T22:39:35.657Z,21.33
2022-12-24T22:42:03.121Z,16.88
2022-12-24T22:44:30.304Z,17.73
2022-12-24T22:46:57.395Z,18.75
2022-12-24T22:49:24.526Z,21.58
2022-12-24T22:51:51.719Z,19.23
2022-12-24T22:54:18.885Z,21.13
2022-12-24T22:56:46.039Z,19.17
2022-12-24T22:59:14.215Z,17.63
2022-12-24T23:01:44.742Z,16.63
2022-12-24T23:04:12.797Z,15.80
2022-12-24T23:06:40.763Z,21.80
2022-12-24T23:09:09.918Z,23.73
2022-12-24T23:11:37.176Z,22.23
2022-12-24T23:14:22.889Z,24.90
2022-12-24T23:16:50.207Z,26.95
2022-12-24T23:19:17.387Z,32.15
2022-12-24T23:21:44.547Z,23.02
2022-12-24T23:24:11.672Z,30.00
2022-12-24T23:26:38.940Z,38.00
2022-12-24T23:29:06.763Z,31.08
2022-12-24T23:31:35.075Z,27.42
2022-12-24T23:34:02.586Z,27.17
2022-12-24T23:36:29.983Z,27.42
2022-12-24T23:38:57.816Z,29.52
2022-12-24T23:41:25.017Z,28.15
2022-12-24T23:43:52.283Z,34.80
2022-12-24T23:46:20.369Z,32.10
2022-12-24T23:48:53.547Z,26.80
2022-12-24T23:51:23.839Z,24.50
2022-12-24T23:53:56.773Z,23.98
2022-12-24T23:56:25.344Z,25.67
2022-12-24T23:58:52.710Z,26.83
